createdAt,value
2023-04-08T00:00:57.385Z,85.97
2023-04-08T00:01:57.373Z,85.97
2023-04-08T00:02:57.332Z,85.87
2023-04-08T00:03:57.377Z,86.16
2023-04-08T00:04:57.232Z,86.54
2023-04-08T00:05:57.100Z,85.97
2023-04-08T00:06:57.039Z,86.35
2023-04-08T00:07:56.979Z,86.25
2023-04-08T00:08:56.924Z,85.87
2023-04-08T00:09:56.872Z,86.63
2023-04-08T00:10:56.817Z,85.87
2023-04-08T00:11:56.752Z,85.97
2023-04-08T00:12:56.693Z,86.06
2023-04-08T00:13:56.632Z,86.54
2023-04-08T00:14:56.582Z,85.87
2023-04-08T00:15:56.523Z,85.97
2023-04-08T00:16:56.519Z,85.87
2023-04-08T00:17:56.493Z,86.54
2023-04-08T00:18:56.352Z,86.35
2023-04-08T00:19:56.305Z,86.54
2023-04-08T00:20:56.238Z,86.54
2023-04-08T00:21:56.187Z,86.63
2023-04-08T00:22:56.123Z,85.77
2023-04-08T00:23:56.070Z,85.97
2023-04-08T00:24:56.016Z,85.97
2023-04-08T00:25:55.950Z,86.25
2023-04-08T00:26:55.906Z,86.06
2023-04-08T00:27:55.855Z,86.25
2023-04-08T00:28:55.788Z,85.97
2023-04-08T00:29:55.726Z,86.25
2023-04-08T00:30:55.796Z,86.06
2023-04-08T00:31:55.605Z,85.97
2023-04-08T00:32:55.633Z,86.06
2023-04-08T00:33:55.495Z,86.25
2023-04-08T00:34:55.449Z,85.97
2023-04-08T00:35:55.420Z,86.25
2023-04-08T00:36:55.332Z,85.97
2023-04-08T00:37:55.282Z,85.97
2023-04-08T00:38:55.212Z,85.87
2023-04-08T00:39:55.148Z,85.77
2023-04-08T00:40:55.102Z,85.68
2023-04-08T00:41:55.040Z,86.06
2023-04-08T00:42:54.979Z,86.25
2023-04-08T00:43:54.931Z,86.25
2023-04-08T00:44:54.878Z,85.97
2023-04-08T00:45:54.827Z,85.77
2023-04-08T00:46:54.755Z,85.87
2023-04-08T00:47:54.737Z,86.16
2023-04-08T00:48:54.645Z,86.16
2023-04-08T00:49:54.582Z,85.97
2023-04-08T00:50:54.525Z,86.25
2023-04-08T00:51:54.466Z,86.25
2023-04-08T00:52:54.409Z,86.06
2023-04-08T00:53:58.923Z,86.73
2023-04-08T00:54:54.300Z,86.63
2023-04-08T00:55:54.237Z,86.73
2023-04-08T00:56:54.187Z,86.63
2023-04-08T00:57:54.129Z,86.35
2023-04-08T00:58:54.068Z,86.16
2023-04-08T00:59:54.010Z,86.25
2023-04-08T01:00:53.958Z,86.44
2023-04-08T01:01:54.036Z,86.54
2023-04-08T01:02:53.949Z,86.25
2023-04-08T01:03:53.841Z,86.54
2023-04-08T01:04:53.722Z,86.25
2023-04-08T01:05:53.686Z,86.25
2023-04-08T01:07:15.422Z,86.63
2023-04-08T01:07:53.554Z,86.44
2023-04-08T01:08:53.497Z,86.25
2023-04-08T01:09:53.442Z,86.73
2023-04-08T01:10:53.385Z,85.87
2023-04-08T01:11:53.329Z,85.77
2023-04-08T01:12:53.290Z,86.54
2023-04-08T01:13:53.210Z,86.63
2023-04-08T01:14:53.158Z,85.77
2023-04-08T01:15:53.119Z,86.54
2023-04-08T01:16:59.914Z,86.54
2023-04-08T01:17:53.031Z,86.63
2023-04-08T01:18:52.930Z,86.35
2023-04-08T01:19:52.868Z,86.63
2023-04-08T01:20:52.818Z,86.16
2023-04-08T01:21:52.760Z,85.77
2023-04-08T01:22:52.694Z,86.25
2023-04-08T01:23:52.646Z,86.73
2023-04-08T01:24:52.586Z,86.25
2023-04-08T01:25:52.535Z,86.63
2023-04-08T01:26:52.468Z,86.25
2023-04-08T01:27:52.411Z,86.63
2023-04-08T01:28:52.359Z,85.77
2023-04-08T01:29:52.301Z,85.77
2023-04-08T01:30:52.284Z,85.68
2023-04-08T01:31:52.183Z,86.16
2023-04-08T01:32:52.167Z,85.77
2023-04-08T01:33:52.083Z,86.54
2023-04-08T01:34:52.013Z,86.54
2023-04-08T01:35:52.067Z,86.25
2023-04-08T01:36:51.928Z,85.77
2023-04-08T01:37:51.855Z,85.97
2023-04-08T01:38:52.025Z,85.87
2023-04-08T01:39:51.726Z,86.16
2023-04-08T01:40:51.671Z,85.77
2023-04-08T01:41:51.632Z,85.77
2023-04-08T01:42:51.560Z,85.87
2023-04-08T01:43:51.500Z,85.87
2023-04-08T01:44:51.448Z,85.68
2023-04-08T01:45:51.390Z,85.87
2023-04-08T01:46:51.339Z,85.87
2023-04-08T01:47:51.948Z,86.54
2023-04-08T01:48:51.602Z,85.87
2023-04-08T01:49:51.159Z,86.06
2023-04-08T01:50:51.103Z,85.77
2023-04-08T01:51:51.044Z,86.06
2023-04-08T01:52:51.005Z,85.87
2023-04-08T01:53:50.966Z,86.54
2023-04-08T01:54:50.877Z,86.25
2023-04-08T01:55:50.816Z,86.35
2023-04-08T01:56:50.760Z,86.16
2023-04-08T01:57:50.709Z,86.35
2023-04-08T01:58:50.918Z,86.63
2023-04-08T01:59:50.590Z,86.25
2023-04-08T02:00:50.532Z,86.44
2023-04-08T02:01:50.570Z,86.54
2023-04-08T02:02:50.669Z,86.63
2023-04-08T02:03:50.424Z,86.54
2023-04-08T02:04:50.350Z,86.54
2023-04-08T02:05:50.244Z,86.35
2023-04-08T02:06:50.190Z,86.54
2023-04-08T02:07:50.131Z,86.44
2023-04-08T02:08:50.331Z,86.73
2023-04-08T02:10:01.188Z,86.44
2023-04-08T02:10:49.960Z,86.16
2023-04-08T02:11:49.917Z,86.44
2023-04-08T02:12:49.845Z,86.73
2023-04-08T02:13:49.791Z,86.54
2023-04-08T02:14:49.729Z,86.73
2023-04-08T02:15:49.704Z,87.11
2023-04-08T02:16:49.617Z,86.35
2023-04-08T02:17:49.590Z,86.73
2023-04-08T02:18:49.598Z,86.54
2023-04-08T02:19:49.456Z,86.54
2023-04-08T02:20:49.399Z,86.25
2023-04-08T02:21:49.332Z,86.92
2023-04-08T02:22:49.282Z,86.82
2023-04-08T02:23:49.222Z,86.82
2023-04-08T02:24:49.167Z,87.21
2023-04-08T02:25:49.106Z,87.21
2023-04-08T02:26:49.043Z,87.11
2023-04-08T02:27:49.002Z,86.25
2023-04-08T02:28:49.185Z,86.73
2023-04-08T02:29:48.891Z,87.30
2023-04-08T02:30:48.820Z,86.35
2023-04-08T02:31:48.821Z,86.35
2023-04-08T02:32:48.767Z,86.35
2023-04-08T02:33:48.647Z,86.35
2023-04-08T02:34:48.591Z,86.73
2023-04-08T02:35:48.578Z,86.35
2023-04-08T02:36:48.474Z,86.73
2023-04-08T02:37:48.414Z,87.21
2023-04-08T02:38:48.628Z,87.02
2023-04-08T02:39:48.301Z,86.73
2023-04-08T02:40:48.248Z,86.82
2023-04-08T02:41:48.188Z,86.44
2023-04-08T02:42:48.129Z,86.63
2023-04-08T02:43:48.168Z,86.63
2023-04-08T02:44:48.013Z,86.44
2023-04-08T02:45:47.996Z,86.54
2023-04-08T02:46:47.905Z,86.54
2023-04-08T02:47:47.880Z,86.54
2023-04-08T02:49:08.773Z,86.54
2023-04-08T02:49:47.741Z,86.63
2023-04-08T02:50:47.670Z,86.73
2023-04-08T02:51:47.614Z,86.25
2023-04-08T02:52:47.552Z,86.92
2023-04-08T02:53:47.501Z,87.02
2023-04-08T02:54:47.446Z,86.16
2023-04-08T02:55:47.384Z,86.69
2023-04-08T02:56:47.330Z,86.35
2023-04-08T02:57:47.269Z,87.30
2023-04-08T02:58:47.422Z,86.98
2023-04-08T02:59:47.160Z,86.16
2023-04-08T03:00:47.124Z,86.35
2023-04-08T03:01:47.064Z,86.54
2023-04-08T03:02:47.147Z,87.02
2023-04-08T03:03:46.992Z,86.44
2023-04-08T03:04:46.878Z,86.82
2023-04-08T03:05:46.821Z,86.82
2023-04-08T03:06:46.757Z,86.30
2023-04-08T03:07:46.703Z,86.88
2023-04-08T03:08:46.655Z,86.54
2023-04-08T03:09:46.585Z,87.02
2023-04-08T03:10:46.525Z,86.92
2023-04-08T03:11:46.484Z,86.63
2023-04-08T03:12:46.412Z,86.54
2023-04-08T03:13:46.356Z,86.82
2023-04-08T03:14:46.296Z,86.82
2023-04-08T03:15:46.252Z,86.98
2023-04-08T03:16:46.258Z,87.30
2023-04-08T03:17:46.206Z,87.40
2023-04-08T03:18:46.076Z,87.54
2023-04-08T03:19:46.008Z,87.54
2023-04-08T03:20:45.955Z,87.49
2023-04-08T03:21:45.893Z,87.35
2023-04-08T03:22:45.844Z,87.49
2023-04-08T03:23:45.782Z,87.59
2023-04-08T03:24:45.726Z,87.49
2023-04-08T03:25:45.669Z,87.59
2023-04-08T03:26:45.637Z,87.26
2023-04-08T03:27:45.550Z,87.26
2023-04-08T03:28:45.515Z,87.26
2023-04-08T03:29:45.452Z,87.40
2023-04-08T03:30:45.381Z,87.21
2023-04-08T03:31:45.342Z,87.26
2023-04-08T03:32:45.275Z,87.16
2023-04-08T03:33:45.247Z,87.16
2023-04-08T03:34:45.156Z,87.35
2023-04-08T03:35:45.119Z,87.07
2023-04-08T03:36:45.038Z,87.02
2023-04-08T03:37:44.981Z,87.16
2023-04-08T03:38:44.934Z,87.35
2023-04-08T03:39:44.866Z,87.45
2023-04-08T03:40:44.808Z,87.74
2023-04-08T03:41:44.755Z,87.45
2023-04-08T03:42:44.698Z,87.45
2023-04-08T03:43:44.638Z,87.68
2023-04-08T03:44:44.580Z,87.87
2023-04-08T03:45:44.548Z,87.16
2023-04-08T03:46:44.474Z,87.16
2023-04-08T03:47:44.426Z,87.45
2023-04-08T03:48:44.351Z,87.54
2023-04-08T03:49:44.304Z,86.98
2023-04-08T03:50:44.241Z,87.74
2023-04-08T03:51:44.181Z,87.83
2023-04-08T03:52:44.126Z,87.16
2023-04-08T03:53:44.061Z,87.74
2023-04-08T03:54:44.006Z,87.54
2023-04-08T03:55:43.959Z,87.74
2023-04-08T03:56:43.902Z,87.87
2023-04-08T03:57:43.841Z,88.02
2023-04-08T03:58:43.792Z,87.74
2023-04-08T03:59:43.719Z,87.35
2023-04-08T04:00:43.663Z,87.93
2023-04-08T04:01:43.613Z,87.54
2023-04-08T04:02:43.625Z,88.21
2023-04-08T04:03:43.699Z,88.21
2023-04-08T04:04:43.484Z,88.21
2023-04-08T04:05:43.484Z,87.35
2023-04-08T04:06:43.319Z,87.93
2023-04-08T04:07:43.264Z,87.64
2023-04-08T04:08:43.205Z,87.74
2023-04-08T04:09:43.143Z,87.64
2023-04-08T04:10:43.088Z,87.93
2023-04-08T04:11:43.033Z,87.83
2023-04-08T04:12:42.976Z,87.54
2023-04-08T04:13:42.917Z,87.35
2023-04-08T04:14:42.857Z,87.74
2023-04-08T04:15:42.895Z,87.26
2023-04-08T04:16:42.742Z,87.45
2023-04-08T04:17:42.762Z,87.45
2023-04-08T04:18:42.750Z,87.74
2023-04-08T04:19:42.573Z,87.93
2023-04-08T04:20:42.518Z,87.64
2023-04-08T04:21:42.474Z,87.64
2023-04-08T04:22:42.400Z,87.35
2023-04-08T04:23:42.351Z,87.64
2023-04-08T04:24:42.290Z,87.35
2023-04-08T04:25:42.228Z,87.74
2023-04-08T04:26:42.166Z,87.83
2023-04-08T04:27:42.120Z,87.74
2023-04-08T04:28:42.962Z,87.45
2023-04-08T04:29:41.996Z,87.64
2023-04-08T04:30:41.943Z,87.64
2023-04-08T04:31:41.937Z,87.54
2023-04-08T04:32:41.866Z,87.54
2023-04-08T04:33:41.769Z,87.35
2023-04-08T04:34:41.714Z,87.35
2023-04-08T04:35:41.684Z,87.74
2023-04-08T04:36:41.595Z,87.07
2023-04-08T04:37:41.569Z,87.74
2023-04-08T04:38:43.489Z,87.74
2023-04-08T04:39:41.428Z,87.83
2023-04-08T04:40:41.367Z,87.54
2023-04-08T04:41:41.310Z,87.54
2023-04-08T04:42:41.250Z,87.54
2023-04-08T04:43:41.199Z,87.64
2023-04-08T04:47:31.556Z,87.07
2023-04-08T04:48:31.457Z,87.64
2023-04-08T04:50:24.917Z,86.88
2023-04-08T04:51:27.338Z,87.35
2023-04-08T04:53:17.317Z,86.98
2023-04-08T04:54:17.236Z,86.98
2023-04-08T04:56:10.095Z,87.35
2023-04-08T04:57:10.029Z,87.26
2023-04-08T04:59:03.386Z,87.35
2023-04-08T05:00:05.382Z,87.07
2023-04-08T05:01:03.306Z,87.54
2023-04-08T05:02:03.336Z,87.45
2023-04-08T05:03:03.207Z,87.16
2023-04-08T05:04:03.117Z,87.45
2023-04-08T05:05:03.079Z,87.26
2023-04-08T05:06:02.987Z,87.16
2023-04-08T05:07:02.927Z,87.45
2023-04-08T05:08:02.872Z,87.45
2023-04-08T05:09:02.830Z,87.64
2023-04-08T05:10:02.757Z,86.98
2023-04-08T05:11:02.702Z,87.54
2023-04-08T05:12:02.642Z,87.54
2023-04-08T05:13:02.589Z,87.54
2023-04-08T05:14:02.528Z,87.16
2023-04-08T05:15:02.477Z,87.45
2023-04-08T05:16:02.461Z,87.07
2023-04-08T05:17:02.371Z,87.35
2023-04-08T05:18:02.326Z,87.16
2023-04-08T05:19:02.244Z,87.16
2023-04-08T05:20:02.271Z,87.16
2023-04-08T05:21:02.135Z,87.16
2023-04-08T05:22:02.076Z,87.64
2023-04-08T05:23:02.023Z,87.54
2023-04-08T05:24:01.953Z,86.98
2023-04-08T05:25:01.908Z,86.98
2023-04-08T05:26:01.844Z,87.35
2023-04-08T05:27:01.783Z,86.98
2023-04-08T05:28:01.731Z,87.16
2023-04-08T05:29:01.685Z,87.45
2023-04-08T05:30:01.620Z,87.07
2023-04-08T05:31:01.619Z,87.35
2023-04-08T05:32:01.505Z,86.88
2023-04-08T05:33:01.482Z,87.16
2023-04-08T05:34:01.399Z,87.16
2023-04-08T05:35:01.329Z,87.16
2023-04-08T05:36:01.325Z,87.54
2023-04-08T05:37:01.217Z,87.16
2023-04-08T05:38:01.158Z,87.54
2023-04-08T05:39:02.229Z,87.45
2023-04-08T05:40:01.050Z,87.35
2023-04-08T05:41:01.014Z,87.54
2023-04-08T05:42:00.933Z,86.88
2023-04-08T05:43:00.867Z,86.88
2023-04-08T05:44:00.818Z,87.54
2023-04-08T05:45:00.757Z,87.83
2023-04-08T05:46:00.695Z,87.16
2023-04-08T05:47:00.719Z,87.54
2023-04-08T05:48:00.657Z,87.35
2023-04-08T05:49:00.526Z,87.35
2023-04-08T05:50:00.484Z,87.07
2023-04-08T05:51:00.418Z,87.35
2023-04-08T05:52:00.361Z,87.07
2023-04-08T05:53:00.296Z,87.45
2023-04-08T05:54:00.242Z,87.07
2023-04-08T05:55:00.183Z,87.54
2023-04-08T05:56:00.162Z,87.07
2023-04-08T05:57:00.112Z,87.16
2023-04-08T05:58:00.005Z,87.54
2023-04-08T05:58:59.950Z,87.35
2023-04-08T05:59:59.888Z,87.07
2023-04-08T06:00:59.830Z,86.98
2023-04-08T06:01:59.971Z,87.26
2023-04-08T06:03:00.006Z,87.35
2023-04-08T06:03:59.883Z,87.16
2023-04-08T06:04:59.668Z,86.98
2023-04-08T06:05:59.541Z,87.74
2023-04-08T06:06:59.482Z,87.26
2023-04-08T06:07:59.422Z,87.16
2023-04-08T06:08:59.365Z,87.26
2023-04-08T06:09:59.315Z,87.16
2023-04-08T06:10:59.249Z,87.35
2023-04-08T06:11:59.190Z,87.64
2023-04-08T06:12:59.156Z,87.64
2023-04-08T06:13:59.090Z,87.16
2023-04-08T06:14:59.026Z,87.26
2023-04-08T06:15:58.968Z,87.35
2023-04-08T06:16:58.975Z,87.54
2023-04-08T06:17:58.881Z,87.16
2023-04-08T06:18:58.795Z,87.16
2023-04-08T06:19:58.735Z,87.16
2023-04-08T06:20:58.678Z,87.16
2023-04-08T06:21:58.624Z,86.98
2023-04-08T06:22:58.571Z,87.45
2023-04-08T06:23:58.502Z,87.16
2023-04-08T06:24:58.449Z,87.45
2023-04-08T06:25:58.386Z,86.98
2023-04-08T06:26:58.328Z,87.35
2023-04-08T06:27:58.274Z,87.45
2023-04-08T06:28:58.237Z,87.16
2023-04-08T06:29:58.174Z,87.64
2023-04-08T06:30:58.103Z,87.26
2023-04-08T06:31:58.123Z,87.16
2023-04-08T06:32:58.078Z,87.35
2023-04-08T06:34:09.133Z,87.35
2023-04-08T06:34:57.874Z,87.54
2023-04-08T06:35:57.858Z,87.54
2023-04-08T06:36:57.766Z,87.35
2023-04-08T06:37:57.706Z,87.45
2023-04-08T06:38:57.643Z,87.64
2023-04-08T06:39:57.608Z,87.83
2023-04-08T06:40:57.528Z,87.54
2023-04-08T06:41:57.469Z,88.02
2023-04-08T06:42:57.417Z,87.83
2023-04-08T06:43:57.356Z,87.54
2023-04-08T06:44:57.311Z,87.64
2023-04-08T06:45:57.279Z,87.54
2023-04-08T06:46:57.198Z,87.64
2023-04-08T06:47:57.192Z,87.45
2023-04-08T06:48:57.093Z,87.83
2023-04-08T06:49:57.016Z,87.64
2023-04-08T06:50:56.959Z,87.93
2023-04-08T06:51:56.896Z,87.74
2023-04-08T06:52:56.841Z,87.64
2023-04-08T06:53:56.784Z,87.64
2023-04-08T06:54:56.721Z,88.02
2023-04-08T06:55:56.664Z,87.45
2023-04-08T06:56:56.613Z,87.74
2023-04-08T06:57:56.550Z,87.64
2023-04-08T06:58:56.501Z,87.74
2023-04-08T06:59:56.438Z,88.12
2023-04-08T07:00:56.460Z,87.74
2023-04-08T07:01:56.467Z,87.54
2023-04-08T07:02:56.321Z,87.35
2023-04-08T07:03:56.227Z,87.83
2023-04-08T07:04:56.153Z,87.83
2023-04-08T07:05:56.098Z,87.64
2023-04-08T07:06:56.044Z,87.64
2023-04-08T07:07:55.996Z,87.64
2023-04-08T07:08:56.343Z,87.64
2023-04-08T07:09:55.863Z,87.83
2023-04-08T07:10:55.826Z,87.54
2023-04-08T07:11:55.782Z,87.74
2023-04-08T07:12:55.697Z,87.54
2023-04-08T07:13:55.637Z,87.54
2023-04-08T07:14:55.580Z,87.45
2023-04-08T07:16:00.458Z,87.35
2023-04-08T07:16:55.476Z,87.64
2023-04-08T07:17:55.488Z,87.74
2023-04-08T07:18:55.350Z,87.83
2023-04-08T07:19:55.292Z,87.83
2023-04-08T07:20:55.235Z,87.74
2023-04-08T07:21:55.187Z,87.54
2023-04-08T07:22:55.127Z,87.45
2023-04-08T07:23:55.064Z,88.12
2023-04-08T07:24:55.007Z,87.64
2023-04-08T07:25:54.945Z,87.93
2023-04-08T07:26:54.895Z,87.64
2023-04-08T07:27:54.847Z,88.02
2023-04-08T07:28:54.775Z,87.45
2023-04-08T07:29:54.723Z,87.93
2023-04-08T07:30:54.672Z,87.93
2023-04-08T07:31:54.613Z,87.64
2023-04-08T07:32:54.584Z,87.35
2023-04-08T07:33:54.497Z,88.12
2023-04-08T07:34:54.435Z,87.45
2023-04-08T07:35:54.541Z,87.16
2023-04-08T07:36:54.318Z,87.93
2023-04-08T07:37:54.260Z,87.83
2023-04-08T07:38:54.198Z,87.74
2023-04-08T07:39:54.145Z,87.54
2023-04-08T07:40:54.089Z,87.45
2023-04-08T07:41:54.030Z,87.54
2023-04-08T07:42:53.984Z,88.02
2023-04-08T07:43:53.912Z,87.45
2023-04-08T07:44:56.448Z,88.02
2023-04-08T07:45:53.842Z,87.54
2023-04-08T07:46:53.747Z,88.21
2023-04-08T07:47:53.765Z,87.35
2023-04-08T07:48:53.640Z,88.40
2023-04-08T07:49:53.568Z,88.12
2023-04-08T07:51:09.069Z,88.02
2023-04-08T07:51:53.458Z,88.21
2023-04-08T07:52:53.438Z,87.74
2023-04-08T07:53:53.335Z,88.12
2023-04-08T07:54:53.278Z,87.45
2023-04-08T07:55:53.240Z,87.74
2023-04-08T07:56:53.171Z,88.50
2023-04-08T07:57:53.107Z,88.02
2023-04-08T07:58:54.015Z,87.35
2023-04-08T07:59:52.990Z,88.21
2023-04-08T08:00:52.937Z,87.93
2023-04-08T08:01:52.895Z,88.31
2023-04-08T08:02:52.970Z,87.54
2023-04-08T08:03:53.411Z,88.21
2023-04-08T08:04:52.772Z,87.26
2023-04-08T08:05:52.647Z,88.12
2023-04-08T08:06:52.593Z,88.12
2023-04-08T08:07:52.543Z,87.74
2023-04-08T08:08:52.482Z,88.12
2023-04-08T08:09:52.422Z,88.02
2023-04-08T08:10:52.365Z,88.50
2023-04-08T08:11:52.309Z,88.31
2023-04-08T08:12:52.250Z,87.83
2023-04-08T08:13:52.420Z,88.21
2023-04-08T08:14:52.133Z,87.45
2023-04-08T08:15:52.114Z,87.64
2023-04-08T08:16:52.021Z,88.50
2023-04-08T08:17:52.012Z,88.12
2023-04-08T08:18:51.904Z,87.83
2023-04-08T08:19:51.856Z,88.12
2023-04-08T08:20:51.788Z,88.12
2023-04-08T08:21:51.758Z,88.02
2023-04-08T08:22:57.243Z,87.54
2023-04-08T08:23:51.695Z,87.45
2023-04-08T08:24:51.560Z,87.26
2023-04-08T08:25:51.499Z,86.98
2023-04-08T08:26:51.448Z,87.16
2023-04-08T08:27:51.394Z,87.45
2023-04-08T08:28:51.333Z,87.35
2023-04-08T08:29:51.271Z,87.26
2023-04-08T08:30:51.259Z,87.54
2023-04-08T08:31:51.211Z,87.16
2023-04-08T08:32:51.180Z,87.35
2023-04-08T08:33:51.250Z,87.83
2023-04-08T08:34:50.986Z,87.74
2023-04-08T08:35:50.966Z,87.83
2023-04-08T08:36:50.882Z,87.64
2023-04-08T08:37:50.818Z,87.64
2023-04-08T08:38:50.758Z,87.26
2023-04-08T08:39:50.696Z,87.64
2023-04-08T08:40:50.649Z,87.45
2023-04-08T08:41:50.586Z,87.74
2023-04-08T08:42:50.530Z,87.54
2023-04-08T08:43:50.668Z,87.35
2023-04-08T08:44:50.421Z,87.93
2023-04-08T08:45:50.355Z,87.83
2023-04-08T08:46:50.367Z,87.83
2023-04-08T08:47:51.206Z,87.93
2023-04-08T08:48:50.193Z,87.35
2023-04-08T08:49:50.140Z,87.54
2023-04-08T08:50:50.073Z,87.54
2023-04-08T08:51:50.017Z,87.74
2023-04-08T08:52:49.949Z,87.45
2023-04-08T08:53:49.957Z,87.64
2023-04-08T08:54:49.833Z,87.74
2023-04-08T08:56:13.070Z,87.64
2023-04-08T08:56:49.724Z,87.64
2023-04-08T08:57:49.688Z,87.54
2023-04-08T08:58:49.608Z,87.35
2023-04-08T08:59:49.560Z,87.64
2023-04-08T09:00:49.504Z,87.83
2023-04-08T09:01:49.477Z,87.45
2023-04-08T09:02:49.493Z,87.54
2023-04-08T09:03:49.657Z,87.64
2023-04-08T09:04:49.403Z,87.16
2023-04-08T09:05:49.315Z,87.35
2023-04-08T09:06:49.145Z,87.07
2023-04-08T09:07:49.098Z,86.88
2023-04-08T09:08:49.033Z,87.45
2023-04-08T09:09:48.993Z,87.83
2023-04-08T09:10:48.918Z,87.64
2023-04-08T09:11:48.865Z,87.54
2023-04-08T09:12:48.807Z,87.64
2023-04-08T09:13:48.944Z,87.83
2023-04-08T09:14:48.702Z,87.83
2023-04-08T09:15:48.628Z,87.74
2023-04-08T09:16:48.724Z,87.54
2023-04-08T09:17:48.593Z,87.93
2023-04-08T09:18:48.461Z,87.83
2023-04-08T09:19:48.408Z,87.74
2023-04-08T09:20:48.343Z,87.93
2023-04-08T09:21:48.290Z,87.74
2023-04-08T09:22:48.230Z,87.64
2023-04-08T09:23:48.507Z,87.54
2023-04-08T09:24:48.121Z,87.74
2023-04-08T09:25:48.061Z,87.35
2023-04-08T09:27:11.983Z,87.93
2023-04-08T09:27:47.940Z,88.12
2023-04-08T09:28:47.892Z,88.02
2023-04-08T09:29:47.831Z,87.54
2023-04-08T09:30:47.775Z,87.45
2023-04-08T09:31:47.775Z,88.50
2023-04-08T09:32:47.708Z,87.45
2023-04-08T09:33:47.635Z,87.64
2023-04-08T09:34:47.548Z,87.64
2023-04-08T09:35:47.507Z,87.83
2023-04-08T09:36:47.435Z,87.35
2023-04-08T09:37:47.367Z,87.64
2023-04-08T09:38:47.315Z,88.12
2023-04-08T09:39:47.411Z,88.02
2023-04-08T09:40:47.200Z,88.02
2023-04-08T09:41:47.144Z,88.31
2023-04-08T09:42:49.976Z,88.12
2023-04-08T09:43:47.023Z,88.21
2023-04-08T09:44:46.973Z,87.74
2023-04-08T09:45:46.960Z,88.12
2023-04-08T09:46:46.855Z,88.31
2023-04-08T09:47:46.827Z,87.54
2023-04-08T09:48:46.749Z,88.02
2023-04-08T09:49:46.683Z,88.12
2023-04-08T09:50:46.629Z,87.64
2023-04-08T09:51:46.569Z,88.21
2023-04-08T09:52:46.510Z,87.64
2023-04-08T09:53:46.454Z,88.02
2023-04-08T09:54:46.408Z,87.45
2023-04-08T09:55:46.345Z,87.35
2023-04-08T09:56:46.279Z,87.07
2023-04-08T09:57:46.227Z,87.64
2023-04-08T09:58:46.163Z,87.45
2023-04-08T09:59:46.112Z,87.54
2023-04-08T10:00:46.096Z,87.35
2023-04-08T10:01:46.077Z,87.83
2023-04-08T10:02:46.128Z,87.83
2023-04-08T10:03:46.004Z,87.54
2023-04-08T10:04:45.928Z,87.54
2023-04-08T10:05:45.763Z,87.93
2023-04-08T10:06:45.711Z,87.83
2023-04-08T10:07:45.656Z,87.74
2023-04-08T10:08:45.597Z,87.45
2023-04-08T10:09:45.539Z,87.64
2023-04-08T10:10:47.353Z,87.54
2023-04-08T10:11:45.428Z,87.64
2023-04-08T10:12:45.372Z,87.45
2023-04-08T10:13:45.314Z,87.35
2023-04-08T10:14:45.253Z,86.98
2023-04-08T10:15:45.193Z,87.45
2023-04-08T10:16:45.171Z,86.98
2023-04-08T10:17:45.107Z,87.07
2023-04-08T10:18:45.024Z,86.98
2023-04-08T10:19:44.965Z,86.88
2023-04-08T10:20:44.933Z,86.59
2023-04-08T10:21:44.856Z,86.40
2023-04-08T10:22:44.809Z,86.02
2023-04-08T10:23:44.735Z,85.64
2023-04-08T10:24:44.680Z,85.64
2023-04-08T10:25:44.624Z,85.93
2023-04-08T10:26:44.570Z,86.21
2023-04-08T10:27:44.510Z,85.45
2023-04-08T10:28:44.457Z,85.93
2023-04-08T10:29:44.388Z,85.35
2023-04-08T10:30:44.335Z,85.35
2023-04-08T10:31:44.322Z,85.45
2023-04-08T10:32:44.237Z,84.59
2023-04-08T10:33:44.159Z,85.06
2023-04-08T10:34:44.100Z,84.97
2023-04-08T10:35:44.043Z,85.45
2023-04-08T10:36:43.983Z,84.97
2023-04-08T10:37:43.936Z,85.45
2023-04-08T10:38:43.870Z,84.78
2023-04-08T10:39:43.816Z,84.88
2023-04-08T10:40:43.758Z,84.40
2023-04-08T10:41:43.715Z,84.69
2023-04-08T10:42:43.638Z,84.49
2023-04-08T10:43:43.587Z,84.40
2023-04-08T10:44:43.527Z,84.30
2023-04-08T10:45:44.343Z,84.40
2023-04-08T10:46:43.439Z,84.20
2023-04-08T10:47:43.433Z,84.11
2023-04-08T10:48:43.296Z,84.40
2023-04-08T10:49:43.235Z,84.20
2023-04-08T10:50:43.182Z,84.59
2023-04-08T10:51:43.125Z,84.40
2023-04-08T10:52:43.070Z,84.40
2023-04-08T10:53:43.022Z,84.40
2023-04-08T10:54:42.953Z,84.20
2023-04-08T10:55:42.894Z,84.20
2023-04-08T10:56:42.841Z,83.83
2023-04-08T10:57:42.784Z,83.83
2023-04-08T10:58:42.720Z,84.30
2023-04-08T10:59:42.672Z,83.73
2023-04-08T11:00:42.617Z,84.01
2023-04-08T11:01:42.688Z,83.73
2023-04-08T11:02:42.611Z,83.35
2023-04-08T11:03:42.571Z,83.44
2023-04-08T11:04:42.641Z,83.44
2023-04-08T11:05:42.323Z,83.25
2023-04-08T11:06:42.297Z,83.35
2023-04-08T11:07:42.211Z,83.54
2023-04-08T11:08:42.152Z,83.44
2023-04-08T11:09:42.091Z,82.78
2023-04-08T11:10:42.056Z,82.78
2023-04-08T11:11:41.981Z,82.87
2023-04-08T11:12:41.928Z,82.87
2023-04-08T11:13:51.120Z,82.87
2023-04-08T11:14:41.822Z,83.16
2023-04-08T11:15:41.789Z,82.97
2023-04-08T11:16:41.693Z,82.68
2023-04-08T11:17:41.679Z,82.78
2023-04-08T11:18:41.592Z,83.06
2023-04-08T11:19:41.525Z,82.87
2023-04-08T11:20:41.466Z,82.87
2023-04-08T11:21:41.404Z,82.78
2023-04-08T11:22:41.354Z,82.87
2023-04-08T11:23:41.287Z,82.49
2023-04-08T11:24:41.241Z,82.59
2023-04-08T11:25:41.173Z,81.92
2023-04-08T11:26:41.115Z,82.30
2023-04-08T11:27:41.061Z,82.20
2023-04-08T11:28:55.504Z,82.49
2023-04-08T11:29:40.945Z,82.49
2023-04-08T11:30:40.950Z,82.11
2023-04-08T11:31:40.877Z,82.68
2023-04-08T11:32:40.798Z,82.49
2023-04-08T11:33:40.715Z,82.49
2023-04-08T11:34:40.670Z,81.82
2023-04-08T11:35:40.652Z,82.40
2023-04-08T11:36:40.550Z,82.40
2023-04-08T11:37:40.488Z,82.11
2023-04-08T11:38:40.433Z,82.20
2023-04-08T11:39:40.483Z,82.20
2023-04-08T11:40:40.318Z,82.20
2023-04-08T11:41:40.265Z,82.20
2023-04-08T11:42:40.202Z,82.01
2023-04-08T11:43:40.142Z,82.20
2023-04-08T11:44:40.083Z,82.20
2023-04-08T11:45:40.038Z,82.11
2023-04-08T11:46:39.991Z,82.20
2023-04-08T11:47:39.933Z,82.20
2023-04-08T11:48:39.855Z,82.30
2023-04-08T11:49:39.801Z,82.40
2023-04-08T11:50:39.743Z,82.01
2023-04-08T11:51:39.679Z,82.11
2023-04-08T11:52:39.630Z,82.20
2023-04-08T11:53:39.573Z,81.92
2023-04-08T11:54:50.087Z,82.01
2023-04-08T11:55:39.454Z,82.01
2023-04-08T11:56:39.399Z,82.01
2023-04-08T11:57:39.336Z,82.01
2023-04-08T11:58:39.287Z,82.20
2023-04-08T11:59:39.229Z,82.20
2023-04-08T12:00:39.166Z,82.11
2023-04-08T12:01:39.123Z,82.11
2023-04-08T12:02:39.117Z,82.11
2023-04-08T12:03:39.241Z,82.20
2023-04-08T12:05:04.560Z,82.11
2023-04-08T12:05:38.879Z,82.30
2023-04-08T12:06:38.823Z,82.11
2023-04-08T12:07:38.772Z,82.20
2023-04-08T12:08:38.708Z,81.73
2023-04-08T12:09:38.648Z,81.82
2023-04-08T12:10:38.592Z,81.82
2023-04-08T12:11:38.538Z,81.92
2023-04-08T12:12:40.038Z,81.73
2023-04-08T12:13:38.417Z,81.82
2023-04-08T12:14:38.364Z,82.20
2023-04-08T12:15:38.307Z,82.11
2023-04-08T12:16:38.385Z,82.11
2023-04-08T12:17:38.214Z,81.92
2023-04-08T12:18:59.183Z,82.20
2023-04-08T12:19:38.637Z,81.92
2023-04-08T12:20:38.019Z,81.92
2023-04-08T12:21:37.962Z,81.92
2023-04-08T12:22:37.907Z,82.30
2023-04-08T12:23:37.850Z,82.20
2023-04-08T12:24:37.788Z,81.63
2023-04-08T12:25:37.730Z,81.54
2023-04-08T12:26:37.676Z,81.63
2023-04-08T12:27:37.615Z,81.63
2023-04-08T12:28:37.566Z,81.73
2023-04-08T12:29:37.498Z,81.63
2023-04-08T12:30:37.451Z,81.54
2023-04-08T12:31:37.461Z,81.63
2023-04-08T12:32:37.343Z,81.92
2023-04-08T12:33:37.276Z,81.92
2023-04-08T12:34:37.242Z,81.44
2023-04-08T12:35:37.182Z,81.54
2023-04-08T12:36:37.101Z,81.54
2023-04-08T12:37:37.051Z,81.63
2023-04-08T12:38:36.988Z,81.54
2023-04-08T12:39:36.937Z,81.63
2023-04-08T12:40:36.875Z,82.20
2023-04-08T12:41:36.817Z,81.82
2023-04-08T12:42:36.817Z,81.92
2023-04-08T12:43:36.707Z,82.30
2023-04-08T12:44:36.642Z,82.20
2023-04-08T12:45:36.597Z,82.11
2023-04-08T12:46:36.582Z,81.92
2023-04-08T12:47:36.487Z,82.11
2023-04-08T12:48:36.662Z,82.20
2023-04-08T12:49:48.940Z,82.01
2023-04-08T12:50:36.311Z,81.54
2023-04-08T12:51:36.251Z,81.73
2023-04-08T12:52:36.188Z,82.20
2023-04-08T12:53:36.137Z,82.11
2023-04-08T12:54:36.067Z,81.82
2023-04-08T12:55:36.012Z,82.30
2023-04-08T12:56:35.967Z,82.11
2023-04-08T12:58:35.842Z,82.20
2023-04-08T12:59:35.786Z,81.92